Time,TemperatureF,DewpointF,PressureIn,WindDirection,WindDirectionDegrees,WindSpeedMPH,WindSpeedGustMPH,Humidity,HourlyPrecipIn,Conditions,Clouds,dailyrainin,SoftwareType,DateUTC
2013-01-03 00:00:00,16.1,4.3,30.02,South,181,12.0,12.0,59,0.00,,CLR,0.00,VWS V14.01,2013-01-03 05:00:00,
2013-01-03 00:05:00,15.9,4.1,30.02,SSE,154,9.0,12.0,59,0.00,,CLR,0.00,VWS V14.01,2013-01-03 05:05:00,
2013-01-03 00:11:00,15.9,4.1,30.02,SSW,200,7.0,13.0,59,0.00,,CLR,0.00,VWS V14.01,2013-01-03 05:11:00,
2013-01-03 00:20:00,15.9,4.1,30.02,SW,222,7.0,11.0,59,0.00,,CLR,0.00,VWS V14.01,2013-01-03 05:20:00,
2013-01-03 00:25:00,15.7,3.9,30.02,SSW,202,8.0,9.0,59,0.00,,CLR,0.00,VWS V14.01,2013-01-03 05:25:00,
2013-01-03 00:30:00,15.7,3.9,30.02,SW,223,4.0,11.0,59,0.00,,CLR,0.00,VWS V14.01,2013-01-03 05:30:00,
2013-01-03 00:35:00,15.7,3.9,30.02,SW,219,7.0,7.0,59,0.00,,CLR,0.00,VWS V14.01,2013-01-03 05:35:00,
2013-01-03 00:40:00,15.7,4.3,30.02,SW,217,10.0,12.0,60,0.00,,CLR,0.00,VWS V14.01,2013-01-03 05:40:00,
2013-01-03 00:45:00,15.4,4.0,30.02,SSW,195,9.0,12.0,60,0.00,,CLR,0.00,VWS V14.01,2013-01-03 05:45:00,
2013-01-03 00:50:00,15.2,4.2,30.02,SSW,198,9.0,12.0,61,0.00,,CLR,0.00,VWS V14.01,2013-01-03 05:50:00,
2013-01-03 00:55:00,14.9,3.9,30.02,SSW,192,3.0,9.0,61,0.00,,CLR,0.00,VWS V14.01,2013-01-03 05:55:00,
2013-01-03 01:00:00,14.6,4.0,30.02,South,185,5.0,7.0,62,0.00,,CLR,0.00,VWS V14.01,2013-01-03 06:00:00,
2013-01-03 01:05:00,14.4,3.8,30.02,South,178,1.0,7.0,62,0.00,,CLR,0.00,VWS V14.01,2013-01-03 06:05:00,
2013-01-03 01:10:00,14.3,3.7,30.02,South,181,4.0,5.0,62,0.00,,CLR,0.00,VWS V14.01,2013-01-03 06:10:00,
2013-01-03 01:15:00,14.3,4.0,30.02,South,182,5.0,7.0,63,0.00,,CLR,0.00,VWS V14.01,2013-01-03 06:15:00,
2013-01-03 01:20:00,14.1,3.8,30.02,South,178,3.0,7.0,63,0.00,,CLR,0.00,VWS V14.01,2013-01-03 06:20:00,
2013-01-03 01:30:00,14.0,4.1,30.01,South,179,3.0,6.0,64,0.00,,CLR,0.00,VWS V14.01,2013-01-03 06:30:00,
2013-01-03 01:35:00,14.0,4.1,30.01,South,178,6.0,7.0,64,0.00,,CLR,0.00,VWS V14.01,2013-01-03 06:35:00,
2013-01-03 01:40:00,14.0,3.7,30.01,South,191,3.0,7.0,63,0.00,,CLR,0.00,VWS V14.01,2013-01-03 06:40:00,
2013-01-03 01:50:00,13.8,3.9,30.01,South,179,0.0,7.0,64,0.00,,CLR,0.00,VWS V14.01,2013-01-03 06:50:00,
2013-01-03 02:00:00,13.6,3.7,30.00,South,175,2.0,6.0,64,0.00,,CLR,0.00,VWS V14.01,2013-01-03 07:00:00,
2013-01-03 02:05:00,13.8,3.9,30.00,South,181,5.0,6.0,64,0.00,,CLR,0.00,VWS V14.01,2013-01-03 07:05:00,
2013-01-03 02:10:00,13.8,3.9,30.00,South,171,3.0,6.0,64,0.00,,CLR,0.00,VWS V14.01,2013-01-03 07:10:00,
2013-01-03 02:15:00,13.8,3.9,30.01,SSW,198,7.0,8.0,64,0.00,,CLR,0.00,VWS V14.01,2013-01-03 07:15:00,
2013-01-03 02:20:00,14.1,4.2,30.01,SSE,162,3.0,8.0,64,0.00,,CLR,0.00,VWS V14.01,2013-01-03 07:20:00,
2013-01-03 02:25:00,14.1,3.8,30.01,SSW,193,6.0,8.0,63,0.00,,CLR,0.00,VWS V14.01,2013-01-03 07:25:00,
2013-01-03 02:35:00,14.4,4.1,30.01,SSW,192,7.0,9.0,63,0.00,,CLR,0.00,VWS V14.01,2013-01-03 07:35:00,
2013-01-03 02:40:00,14.3,4.0,30.01,South,188,6.0,7.0,63,0.00,,CLR,0.00,VWS V14.01,2013-01-03 07:40:00,
2013-01-03 02:45:00,14.3,4.0,30.01,SSW,196,7.0,11.0,63,0.00,,CLR,0.00,VWS V14.01,2013-01-03 07:45:00,
2013-01-03 02:50:00,14.3,4.0,30.01,SSW,192,4.0,12.0,63,0.00,,CLR,0.00,VWS V14.01,2013-01-03 07:50:00,
2013-01-03 02:55:00,14.3,4.0,30.01,SSW,193,5.0,10.0,63,0.00,,CLR,0.00,VWS V14.01,2013-01-03 07:55:00,
2013-01-03 03:00:00,14.3,4.0,30.01,South,191,6.0,10.0,63,0.00,,CLR,0.00,VWS V14.01,2013-01-03 08:00:00,
2013-01-03 03:05:00,14.4,4.1,30.01,South,189,7.0,10.0,63,0.00,,CLR,0.00,VWS V14.01,2013-01-03 08:05:00,
2013-01-03 03:10:00,14.4,4.1,30.01,South,191,6.0,10.0,63,0.00,,CLR,0.00,VWS V14.01,2013-01-03 08:10:00,
2013-01-03 03:15:00,14.4,4.1,30.00,South,189,6.0,9.0,63,0.00,,CLR,0.00,VWS V14.01,2013-01-03 08:15:00,
2013-01-03 03:20:00,14.6,4.3,30.00,SSW,195,5.0,10.0,63,0.00,,CLR,0.00,VWS V14.01,2013-01-03 08:20:00,
2013-01-03 03:25:00,14.8,4.5,30.00,SSW,200,7.0,11.0,63,0.00,,CLR,0.00,VWS V14.01,2013-01-03 08:25:00,
2013-01-03 03:30:00,14.9,4.2,30.00,South,191,7.0,11.0,62,0.00,,CLR,0.00,VWS V14.01,2013-01-03 08:30:00,
2013-01-03 03:35:00,15.2,4.5,30.00,SSW,202,5.0,9.0,62,0.00,,CLR,0.00,VWS V14.01,2013-01-03 08:35:00,
2013-01-03 03:40:00,15.2,4.5,30.00,South,178,5.0,7.0,62,0.00,,CLR,0.00,VWS V14.01,2013-01-03 08:40:00,
2013-01-03 03:45:00,15.4,4.7,30.00,SSW,205,5.0,8.0,62,0.00,,CLR,0.00,VWS V14.01,2013-01-03 08:45:00,
2013-01-03 03:50:00,15.7,5.0,30.00,SSW,202,5.0,8.0,62,0.00,,CLR,0.00,VWS V14.01,2013-01-03 08:50:00,
2013-01-03 03:55:00,15.9,5.2,30.00,South,181,4.0,7.0,62,0.00,,CLR,0.00,VWS V14.01,2013-01-03 08:55:00,
2013-01-03 04:00:00,16.1,5.4,30.00,South,189,9.0,9.0,62,0.00,,OVC075,0.00,VWS V14.01,2013-01-03 09:00:00,
2013-01-03 04:05:00,16.7,6.0,30.00,SSW,195,6.0,9.0,62,0.00,,OVC075,0.00,VWS V14.01,2013-01-03 09:05:00,
2013-01-03 04:15:00,17.3,6.5,30.00,SSW,209,7.0,9.0,62,0.00,,OVC075,0.00,VWS V14.01,2013-01-03 09:15:00,
2013-01-03 04:20:00,17.7,6.9,30.00,SW,232,3.0,12.0,62,0.00,,OVC075,0.00,VWS V14.01,2013-01-03 09:20:00,
2013-01-03 04:25:00,17.8,6.6,30.00,SW,223,1.0,10.0,61,0.00,,OVC075,0.00,VWS V14.01,2013-01-03 09:25:00,
2013-01-03 04:35:00,18.1,7.3,30.00,SSW,209,6.0,7.0,62,0.00,,OVC075,0.00,VWS V14.01,2013-01-03 09:35:00,
2013-01-03 04:40:00,18.3,7.5,30.00,SW,216,4.0,8.0,62,0.00,,OVC075,0.00,VWS V14.01,2013-01-03 09:40:00,
2013-01-03 04:50:00,18.8,7.9,29.99,SW,220,5.0,11.0,62,0.00,,OVC075,0.00,VWS V14.01,2013-01-03 09:50:00,
2013-01-03 04:55:00,19.1,8.2,29.99,SW,222,7.0,12.0,62,0.00,,OVC075,0.00,VWS V14.01,2013-01-03 09:55:00,
2013-01-03 05:00:00,19.2,8.3,29.99,South,181,10.0,12.0,62,0.00,,OVC075,0.00,VWS V14.01,2013-01-03 10:00:00,
2013-01-03 05:05:00,19.4,8.5,29.99,SW,215,10.0,13.0,62,0.00,,OVC075,0.00,VWS V14.01,2013-01-03 10:05:00,
2013-01-03 05:10:00,19.4,8.5,29.99,SSW,210,11.0,12.0,62,0.00,,OVC075,0.00,VWS V14.01,2013-01-03 10:10:00,
2013-01-03 05:15:00,19.5,9.0,29.99,SW,226,6.0,13.0,63,0.00,,OVC075,0.00,VWS V14.01,2013-01-03 10:15:00,
2013-01-03 05:25:00,19.7,9.2,29.99,SW,219,7.0,12.0,63,0.00,,OVC075,0.00,VWS V14.01,2013-01-03 10:25:00,
2013-01-03 05:30:00,19.7,9.2,30.00,SSW,208,7.0,12.0,63,0.00,,OVC075,0.00,VWS V14.01,2013-01-03 10:30:00,
2013-01-03 05:35:00,19.7,9.2,30.00,SW,223,8.0,13.0,63,0.00,,OVC075,0.00,VWS V14.01,2013-01-03 10:35:00,
2013-01-03 05:40:00,19.7,9.2,30.00,SW,216,7.0,11.0,63,0.00,,OVC075,0.00,VWS V14.01,2013-01-03 10:40:00,
2013-01-03 05:45:00,19.7,9.5,30.00,SW,233,3.0,14.0,64,0.00,,OVC075,0.00,VWS V14.01,2013-01-03 10:45:00,
2013-01-03 05:50:00,19.7,9.5,30.00,SW,226,11.0,13.0,64,0.00,,OVC075,0.00,VWS V14.01,2013-01-03 10:50:00,
2013-01-03 06:00:00,19.7,9.5,30.00,SW,219,8.0,14.0,64,0.00,,,0.00,VWS V14.01,2013-01-03 11:00:00,
2013-01-03 06:10:00,19.5,9.7,30.00,SW,223,15.0,16.0,65,0.00,,,0.00,VWS V14.01,2013-01-03 11:10:00,
2013-01-03 06:15:00,19.5,9.7,30.00,SW,224,10.0,17.0,65,0.00,,,0.00,VWS V14.01,2013-01-03 11:15:00,
2013-01-03 06:20:00,19.5,10.0,30.00,SW,232,13.0,18.0,66,0.00,,,0.00,VWS V14.01,2013-01-03 11:20:00,
2013-01-03 06:25:00,19.5,10.0,30.00,SW,224,10.0,18.0,66,0.00,,,0.00,VWS V14.01,2013-01-03 11:25:00,
2013-01-03 06:30:00,19.5,10.0,30.00,WSW,246,7.0,16.0,66,0.00,,,0.00,VWS V14.01,2013-01-03 11:30:00,
2013-01-03 06:35:00,19.5,10.3,30.00,SW,220,13.0,14.0,67,0.00,,,0.00,VWS V14.01,2013-01-03 11:35:00,
2013-01-03 06:40:00,19.5,10.3,30.00,SW,224,7.0,13.0,67,0.00,,,0.00,VWS V14.01,2013-01-03 11:40:00,
2013-01-03 06:45:00,19.5,10.7,30.00,SE,130,5.0,13.0,68,0.00,,,0.00,VWS V14.01,2013-01-03 11:45:00,
2013-01-03 06:50:00,19.5,10.7,30.00,SW,224,6.0,13.0,68,0.00,,,0.00,VWS V14.01,2013-01-03 11:50:00,
2013-01-03 06:55:00,19.7,10.9,30.00,SSW,205,12.0,19.0,68,0.00,,,0.00,VWS V14.01,2013-01-03 11:55:00,
2013-01-03 07:05:00,19.9,11.4,30.00,SSW,212,6.0,13.0,69,0.00,,OVC038,0.00,VWS V14.01,2013-01-03 12:05:00,
2013-01-03 07:10:00,19.9,11.4,30.00,SSW,203,11.0,12.0,69,0.00,,OVC038,0.00,VWS V14.01,2013-01-03 12:10:00,
2013-01-03 07:15:00,19.9,11.7,30.00,SW,223,12.0,12.0,70,0.00,,OVC038,0.00,VWS V14.01,2013-01-03 12:15:00,
2013-01-03 07:20:00,19.9,11.7,30.00,SW,234,10.0,12.0,70,0.00,,OVC038,0.00,VWS V14.01,2013-01-03 12:20:00,
2013-01-03 07:25:00,20.0,11.8,30.00,SSW,209,10.0,12.0,70,0.00,,OVC038,0.00,VWS V14.01,2013-01-03 12:25:00,
2013-01-03 07:30:00,20.0,12.1,30.01,WSW,239,8.0,13.0,71,0.00,,OVC038,0.00,VWS V14.01,2013-01-03 12:30:00,
2013-01-03 07:35:00,20.0,12.1,30.01,SW,223,7.0,12.0,71,0.00,,OVC038,0.00,VWS V14.01,2013-01-03 12:35:00,
2013-01-03 07:40:00,20.2,12.3,30.01,SSW,209,6.0,13.0,71,0.00,,OVC038,0.00,VWS V14.01,2013-01-03 12:40:00,
2013-01-03 07:45:00,20.2,12.3,30.01,SSW,210,7.0,10.0,71,0.00,,OVC038,0.00,VWS V14.01,2013-01-03 12:45:00,
2013-01-03 07:50:00,20.2,12.6,30.01,SW,219,8.0,13.0,72,0.00,,OVC038,0.00,VWS V14.01,2013-01-03 12:50:00,
2013-01-03 07:55:00,20.2,12.6,30.01,SW,230,5.0,17.0,72,0.00,,OVC038,0.00,VWS V14.01,2013-01-03 12:55:00,
2013-01-03 08:00:00,20.2,12.6,30.01,WSW,257,9.0,13.0,72,0.00,,OVC038,0.00,VWS V14.01,2013-01-03 13:00:00,
2013-01-03 08:05:00,20.2,12.6,30.01,SW,229,7.0,13.0,72,0.00,,OVC038,0.00,VWS V14.01,2013-01-03 13:05:00,
2013-01-03 08:10:00,20.2,12.6,30.01,SW,234,11.0,15.0,72,0.00,,OVC038,0.00,VWS V14.01,2013-01-03 13:10:00,
2013-01-03 08:15:00,20.0,12.4,30.01,SW,220,12.0,17.0,72,0.00,,OVC038,0.00,VWS V14.01,2013-01-03 13:15:00,
2013-01-03 08:20:00,19.9,12.7,30.01,SW,230,5.0,15.0,73,0.00,,OVC038,0.00,VWS V14.01,2013-01-03 13:20:00,
2013-01-03 08:25:00,19.9,12.7,30.01,SW,223,7.0,12.0,73,0.00,,OVC038,0.00,VWS V14.01,2013-01-03 13:25:00,
2013-01-03 08:30:00,20.0,12.8,30.01,SW,216,8.0,13.0,73,0.00,,OVC038,0.00,VWS V14.01,2013-01-03 13:30:00,
2013-01-03 08:35:00,20.0,12.8,30.01,SW,217,11.0,12.0,73,0.00,,OVC038,0.00,VWS V14.01,2013-01-03 13:35:00,
2013-01-03 08:40:00,20.0,12.8,30.01,SW,227,5.0,13.0,73,0.00,,OVC038,0.00,VWS V14.01,2013-01-03 13:40:00,
2013-01-03 08:45:00,20.2,12.9,30.02,SW,220,7.0,11.0,73,0.00,,OVC038,0.00,VWS V14.01,2013-01-03 13:45:00,
2013-01-03 08:55:00,20.3,13.0,30.02,SSW,209,10.0,13.0,73,0.00,,OVC038,0.00,VWS V14.01,2013-01-03 13:55:00,
2013-01-03 09:00:00,20.5,13.5,30.01,SW,223,11.0,13.0,74,0.00,,OVC055,0.00,VWS V14.01,2013-01-03 14:00:00,
2013-01-03 09:10:00,20.6,13.6,30.01,SW,222,6.0,12.0,74,0.00,,OVC055,0.00,VWS V14.01,2013-01-03 14:10:00,
2013-01-03 09:15:00,20.8,14.1,30.01,SSW,199,7.0,13.0,75,0.00,,OVC055,0.00,VWS V14.01,2013-01-03 14:15:00,
2013-01-03 09:20:00,21.1,14.4,30.01,SSW,213,11.0,15.0,75,0.00,,OVC055,0.00,VWS V14.01,2013-01-03 14:20:00,
2013-01-03 09:25:00,21.3,14.6,30.01,SW,217,10.0,12.0,75,0.00,,OVC055,0.00,VWS V14.01,2013-01-03 14:25:00,
2013-01-03 09:30:00,21.4,15.0,30.02,SSW,205,7.0,13.0,76,0.00,,OVC055,0.00,VWS V14.01,2013-01-03 14:30:00,
2013-01-03 09:35:00,21.8,15.4,30.02,WSW,237,8.0,14.0,76,0.00,,OVC055,0.00,VWS V14.01,2013-01-03 14:35:00,
2013-01-03 09:40:00,21.9,15.5,30.02,SW,217,11.0,17.0,76,0.00,,OVC055,0.00,VWS V14.01,2013-01-03 14:40:00,
2013-01-03 09:45:00,22.1,15.7,30.02,SSW,208,11.0,17.0,76,0.00,,OVC055,0.00,VWS V14.01,2013-01-03 14:45:00,
2013-01-03 09:55:00,22.5,16.4,30.02,WSW,246,10.0,15.0,77,0.00,,OVC055,0.00,VWS V14.01,2013-01-03 14:55:00,
2013-01-03 10:00:00,22.7,16.6,30.02,SW,223,12.0,16.0,77,0.00,,OVC048,0.00,VWS V14.01,2013-01-03 15:00:00,
2013-01-03 10:10:00,23.0,17.2,30.02,SSW,213,8.0,13.0,78,0.00,,OVC048,0.00,VWS V14.01,2013-01-03 15:10:00,
2013-01-03 10:20:00,23.3,17.2,30.02,SW,234,6.0,16.0,77,0.00,,OVC048,0.00,VWS V14.01,2013-01-03 15:20:00,
2013-01-03 10:25:00,23.5,17.4,30.02,WSW,244,7.0,13.0,77,0.00,,OVC048,0.00,VWS V14.01,2013-01-03 15:25:00,
2013-01-03 10:30:00,23.6,17.5,30.03,WSW,248,6.0,11.0,77,0.00,,OVC048,0.00,VWS V14.01,2013-01-03 15:30:00,
2013-01-03 10:35:00,23.8,17.7,30.03,SW,224,13.0,13.0,77,0.00,,OVC048,0.00,VWS V14.01,2013-01-03 15:35:00,
2013-01-03 10:40:00,23.6,17.5,30.03,SSW,208,12.0,13.0,77,0.00,,OVC048,0.00,VWS V14.01,2013-01-03 15:40:00,
2013-01-03 10:45:00,23.5,17.4,30.04,SW,230,6.0,18.0,77,0.00,,OVC048,0.00,VWS V14.01,2013-01-03 15:45:00,
2013-01-03 10:55:00,23.6,17.8,30.04,SW,222,15.0,17.0,78,0.00,,OVC048,0.00,VWS V14.01,2013-01-03 15:55:00,
2013-01-03 11:00:00,23.8,18.0,30.04,West,261,11.0,16.0,78,0.00,,,0.00,VWS V14.01,2013-01-03 16:00:00,
2013-01-03 11:10:00,23.8,18.0,30.04,SW,219,13.0,18.0,78,0.00,,,0.00,VWS V14.01,2013-01-03 16:10:00,
2013-01-03 11:15:00,23.6,17.8,30.05,SW,234,8.0,22.0,78,0.00,,,0.00,VWS V14.01,2013-01-03 16:15:00,
2013-01-03 11:20:00,23.8,18.0,30.05,SW,232,11.0,18.0,78,0.00,,,0.00,VWS V14.01,2013-01-03 16:20:00,
2013-01-03 11:25:00,23.9,18.0,30.05,SW,219,13.0,14.0,78,0.00,,,0.00,VWS V14.01,2013-01-03 16:25:00,
2013-01-03 11:30:00,24.1,18.2,30.04,SW,236,8.0,14.0,78,0.00,,,0.00,VWS V14.01,2013-01-03 16:30:00,
2013-01-03 11:35:00,24.2,18.3,30.04,WSW,258,13.0,17.0,78,0.00,,,0.00,VWS V14.01,2013-01-03 16:35:00,
2013-01-03 11:40:00,24.2,18.3,30.04,SW,232,13.0,17.0,78,0.00,,,0.00,VWS V14.01,2013-01-03 16:40:00,
2013-01-03 11:45:00,24.5,18.6,30.03,SW,227,6.0,17.0,78,0.00,,,0.00,VWS V14.01,2013-01-03 16:45:00,
2013-01-03 11:50:00,24.5,18.6,30.03,SW,226,7.0,16.0,78,0.00,,,0.00,VWS V14.01,2013-01-03 16:50:00,
2013-01-03 11:55:00,24.7,18.8,30.03,SW,223,13.0,13.0,78,0.00,,,0.00,VWS V14.01,2013-01-03 16:55:00,
2013-01-03 12:05:00,25.3,19.4,30.04,WSW,244,14.0,17.0,78,0.00,,,0.00,VWS V14.01,2013-01-03 17:05:00,
2013-01-03 12:10:00,25.4,19.5,30.04,WSW,237,12.0,14.0,78,0.00,,,0.00,VWS V14.01,2013-01-03 17:10:00,
2013-01-03 12:15:00,25.7,19.8,30.04,WSW,248,11.0,17.0,78,0.00,,,0.00,VWS V14.01,2013-01-03 17:15:00,
2013-01-03 12:20:00,25.8,19.9,30.04,SSW,202,7.0,15.0,78,0.00,,,0.00,VWS V14.01,2013-01-03 17:20:00,
2013-01-03 12:25:00,25.7,19.8,30.04,SW,226,11.0,18.0,78,0.00,,,0.00,VWS V14.01,2013-01-03 17:25:00,
2013-01-03 12:30:00,25.7,19.8,30.03,SW,216,3.0,15.0,78,0.00,,,0.00,VWS V14.01,2013-01-03 17:30:00,
2013-01-03 12:35:00,25.6,20.0,30.03,SW,217,10.0,17.0,79,0.00,,,0.00,VWS V14.01,2013-01-03 17:35:00,
2013-01-03 12:45:00,25.8,20.5,30.03,SSW,213,11.0,12.0,80,0.00,,,0.00,VWS V14.01,2013-01-03 17:45:00,
2013-01-03 12:50:00,26.0,21.0,30.03,SSW,213,11.0,16.0,81,0.00,,,0.00,VWS V14.01,2013-01-03 17:50:00,
2013-01-03 12:55:00,26.1,21.1,30.03,SW,229,12.0,13.0,81,0.00,,,0.00,VWS V14.01,2013-01-03 17:55:00,
2013-01-03 13:05:00,26.3,21.3,30.02,SW,223,6.0,12.0,81,0.00,,,0.00,VWS V14.01,2013-01-03 18:05:00,
2013-01-03 13:10:00,26.4,21.4,30.02,SSW,200,12.0,14.0,81,0.00,,,0.00,VWS V14.01,2013-01-03 18:10:00,
2013-01-03 13:15:00,26.6,21.9,30.02,SSW,208,7.0,13.0,82,0.00,,,0.00,VWS V14.01,2013-01-03 18:15:00,
2013-01-03 13:20:00,26.6,21.9,30.02,SW,230,17.0,18.0,82,0.00,,,0.00,VWS V14.01,2013-01-03 18:20:00,
2013-01-03 13:25:00,26.6,21.9,30.02,SW,220,7.0,18.0,82,0.00,,,0.00,VWS V14.01,2013-01-03 18:25:00,
2013-01-03 13:30:00,26.7,22.0,30.02,SSW,205,12.0,19.0,82,0.00,,,0.00,VWS V14.01,2013-01-03 18:30:00,
2013-01-03 13:40:00,27.0,22.2,30.02,SW,219,13.0,17.0,82,0.00,,,0.00,VWS V14.01,2013-01-03 18:40:00,
2013-01-03 13:45:00,27.2,22.4,30.02,SW,219,10.0,16.0,82,0.00,,,0.00,VWS V14.01,2013-01-03 18:45:00,
2013-01-03 13:50:00,27.3,22.5,30.02,SW,234,11.0,16.0,82,0.00,,,0.00,VWS V14.01,2013-01-03 18:50:00,
2013-01-03 14:00:00,27.8,22.7,30.02,SW,219,9.0,16.0,81,0.00,,,0.00,VWS V14.01,2013-01-03 19:00:00,
2013-01-03 14:05:00,28.1,23.0,30.02,SW,224,11.0,16.0,81,0.00,,,0.00,VWS V14.01,2013-01-03 19:05:00,
2013-01-03 14:15:00,28.4,23.0,30.02,WSW,241,3.0,16.0,80,0.00,,,0.00,VWS V14.01,2013-01-03 19:15:00,
2013-01-03 14:51:00,28.8,23.4,30.02,SW,234,8.0,12.0,80,0.00,,,0.00,VWS V14.01,2013-01-03 19:51:00,
2013-01-03 15:00:00,29.0,23.0,30.03,West,268,12.0,16.0,78,0.00,,OVC025,0.00,VWS V14.01,2013-01-03 20:00:00,
2013-01-03 15:05:00,29.1,22.5,30.03,West,265,11.0,12.0,76,0.00,,OVC025,0.00,VWS V14.01,2013-01-03 20:05:00,
2013-01-03 15:10:00,29.1,22.2,30.03,SSW,209,7.0,18.0,75,0.00,,OVC025,0.00,VWS V14.01,2013-01-03 20:10:00,
2013-01-03 15:20:00,29.3,22.1,30.03,WSW,256,10.0,16.0,74,0.00,,OVC025,0.00,VWS V14.01,2013-01-03 20:20:00,
2013-01-03 15:25:00,29.4,22.1,30.03,WSW,246,5.0,12.0,74,0.00,,OVC025,0.00,VWS V14.01,2013-01-03 20:25:00,
2013-01-03 15:30:00,29.4,22.5,30.03,WSW,257,11.0,13.0,75,0.00,,OVC025,0.00,VWS V14.01,2013-01-03 20:30:00,
2013-01-03 15:35:00,29.4,22.5,30.03,SW,224,7.0,13.0,75,0.00,,OVC025,0.00,VWS V14.01,2013-01-03 20:35:00,
2013-01-03 15:40:00,29.4,22.5,30.03,WSW,248,12.0,15.0,75,0.00,,OVC025,0.00,VWS V14.01,2013-01-03 20:40:00,
2013-01-03 15:45:00,29.4,22.5,30.04,SSW,203,11.0,13.0,75,0.00,,OVC025,0.00,VWS V14.01,2013-01-03 20:45:00,
2013-01-03 15:50:00,29.5,22.6,30.04,West,278,10.0,14.0,75,0.00,,OVC025,0.00,VWS V14.01,2013-01-03 20:50:00,
2013-01-03 16:00:00,29.5,22.6,30.04,WSW,256,10.0,13.0,75,0.00,,OVC022,0.00,VWS V14.01,2013-01-03 21:00:00,
2013-01-03 16:05:00,29.5,22.6,30.04,SW,234,7.0,19.0,75,0.00,,OVC022,0.00,VWS V14.01,2013-01-03 21:05:00,
2013-01-03 16:10:00,29.5,22.2,30.04,WSW,248,12.0,13.0,74,0.00,,OVC022,0.00,VWS V14.01,2013-01-03 21:10:00,
2013-01-03 16:15:00,29.5,21.3,30.04,West,264,6.0,16.0,71,0.00,,OVC022,0.00,VWS V14.01,2013-01-03 21:15:00,
2013-01-03 16:20:00,29.5,20.3,30.04,WSW,258,10.0,16.0,68,0.00,,OVC022,0.00,VWS V14.01,2013-01-03 21:20:00,
2013-01-03 16:25:00,29.5,19.9,30.04,WSW,244,6.0,14.0,67,0.00,,OVC022,0.00,VWS V14.01,2013-01-03 21:25:00,
2013-01-03 16:35:00,29.5,20.6,30.05,South,186,5.0,13.0,69,0.00,,OVC022,0.00,VWS V14.01,2013-01-03 21:35:00,
2013-01-03 16:40:00,29.5,20.6,30.05,WSW,246,10.0,12.0,69,0.00,,OVC022,0.00,VWS V14.01,2013-01-03 21:40:00,
2013-01-03 16:50:00,29.4,21.8,30.05,SW,216,5.0,18.0,73,0.00,,OVC022,0.00,VWS V14.01,2013-01-03 21:50:00,
2013-01-03 16:55:00,29.4,22.1,30.05,WSW,247,10.0,14.0,74,0.00,,OVC022,0.00,VWS V14.01,2013-01-03 21:55:00,
2013-01-03 17:05:00,29.3,21.7,30.06,WSW,251,6.0,17.0,73,0.00,,OVC020,0.00,VWS V14.01,2013-01-03 22:05:00,
2013-01-03 17:10:00,29.3,21.4,30.06,SW,223,12.0,18.0,72,0.00,,OVC020,0.00,VWS V14.01,2013-01-03 22:10:00,
2013-01-03 17:15:00,29.1,21.2,30.06,WSW,240,8.0,21.0,72,0.00,,OVC020,0.00,VWS V14.01,2013-01-03 22:15:00,
2013-01-03 17:20:00,29.0,21.1,30.06,West,260,10.0,17.0,72,0.00,,OVC020,0.00,VWS V14.01,2013-01-03 22:20:00,
2013-01-03 17:30:00,28.8,20.9,30.06,WSW,257,11.0,16.0,72,0.00,,OVC020,0.00,VWS V14.01,2013-01-03 22:30:00,
2013-01-03 17:35:00,28.8,20.6,30.06,WSW,250,9.0,17.0,71,0.00,,OVC020,0.00,VWS V14.01,2013-01-03 22:35:00,
2013-01-03 17:40:00,28.8,20.6,30.06,WSW,246,12.0,13.0,71,0.00,,OVC020,0.00,VWS V14.01,2013-01-03 22:40:00,
2013-01-03 17:45:00,28.7,20.2,30.06,West,265,12.0,13.0,70,0.00,,OVC020,0.00,VWS V14.01,2013-01-03 22:45:00,
2013-01-03 17:50:00,28.7,20.2,30.06,WSW,256,13.0,14.0,70,0.00,,OVC020,0.00,VWS V14.01,2013-01-03 22:50:00,
2013-01-03 17:55:00,28.5,20.0,30.06,WSW,244,13.0,17.0,70,0.00,,OVC020,0.00,VWS V14.01,2013-01-03 22:55:00,
2013-01-03 18:00:00,28.5,20.3,30.06,SW,233,12.0,18.0,71,0.00,,OVC022,0.00,VWS V14.01,2013-01-03 23:00:00,
2013-01-03 18:10:00,28.4,20.2,30.06,West,260,15.0,15.0,71,0.00,,OVC022,0.00,VWS V14.01,2013-01-03 23:10:00,
2013-01-03 18:15:00,28.4,20.5,30.07,WSW,258,14.0,15.0,72,0.00,,OVC022,0.00,VWS V14.01,2013-01-03 23:15:00,
2013-01-03 18:20:00,28.4,20.5,30.07,WSW,248,8.0,14.0,72,0.00,,OVC022,0.00,VWS V14.01,2013-01-03 23:20:00,
2013-01-03 18:30:00,28.2,20.4,30.07,West,267,10.0,11.0,72,0.00,,OVC022,0.00,VWS V14.01,2013-01-03 23:30:00,
2013-01-03 18:35:00,28.2,20.4,30.07,WSW,254,8.0,13.0,72,0.00,,OVC022,0.00,VWS V14.01,2013-01-03 23:35:00,
2013-01-03 18:40:00,28.2,20.4,30.07,SW,234,3.0,11.0,72,0.00,,OVC022,0.00,VWS V14.01,2013-01-03 23:40:00,
2013-01-03 18:50:00,28.1,20.6,30.08,WSW,240,3.0,10.0,73,0.00,,OVC022,0.00,VWS V14.01,2013-01-03 23:50:00,
2013-01-03 18:55:00,28.1,20.6,30.08,WSW,244,6.0,9.0,73,0.00,,OVC022,0.00,VWS V14.01,2013-01-03 23:55:00,
2013-01-03 19:00:00,28.1,20.6,30.08,SW,222,0.0,10.0,73,0.00,,OVC026,0.00,VWS V14.01,2013-01-04 00:00:00,
2013-01-03 19:05:00,28.1,20.6,30.08,SW,219,2.0,6.0,73,0.00,,OVC026,0.00,VWS V14.01,2013-01-04 00:05:00,
2013-01-03 19:15:00,27.9,20.7,30.08,SSW,208,5.0,7.0,74,0.00,,OVC026,0.00,VWS V14.01,2013-01-04 00:15:00,
2013-01-03 19:20:00,28.1,20.9,30.08,WSW,240,3.0,8.0,74,0.00,,OVC026,0.00,VWS V14.01,2013-01-04 00:20:00,
2013-01-03 19:25:00,28.1,20.9,30.08,WSW,239,7.0,11.0,74,0.00,,OVC026,0.00,VWS V14.01,2013-01-04 00:25:00,
2013-01-03 19:30:00,28.1,21.2,30.09,SW,219,4.0,10.0,75,0.00,,OVC026,0.00,VWS V14.01,2013-01-04 00:30:00,
2013-01-03 19:35:00,28.1,21.2,30.09,SW,222,8.0,11.0,75,0.00,,OVC026,0.00,VWS V14.01,2013-01-04 00:35:00,
2013-01-03 19:40:00,28.2,21.3,30.09,WSW,240,7.0,12.0,75,0.00,,OVC026,0.00,VWS V14.01,2013-01-04 00:40:00,
2013-01-03 19:45:00,28.2,21.6,30.09,SW,227,5.0,11.0,76,0.00,,OVC026,0.00,VWS V14.01,2013-01-04 00:45:00,
2013-01-03 19:50:00,28.2,21.6,30.09,SW,226,7.0,11.0,76,0.00,,OVC026,0.00,VWS V14.01,2013-01-04 00:50:00,
2013-01-03 19:55:00,28.1,21.5,30.09,SSE,150,6.0,11.0,76,0.00,,OVC026,0.00,VWS V14.01,2013-01-04 00:55:00,
2013-01-03 20:00:00,28.2,21.9,30.09,SW,224,6.0,12.0,77,0.00,,OVC028,0.00,VWS V14.01,2013-01-04 01:00:00,
2013-01-03 20:05:00,28.2,21.6,30.09,WSW,246,6.0,12.0,76,0.00,,OVC028,0.00,VWS V14.01,2013-01-04 01:05:00,
2013-01-03 20:10:00,28.1,21.8,30.09,WSW,254,9.0,11.0,77,0.00,,OVC028,0.00,VWS V14.01,2013-01-04 01:10:00,
2013-01-03 20:15:00,28.1,21.8,30.09,WSW,256,7.0,12.0,77,0.00,,OVC028,0.00,VWS V14.01,2013-01-04 01:15:00,
2013-01-03 20:25:00,28.1,21.8,30.09,WSW,244,6.0,8.0,77,0.00,,OVC028,0.00,VWS V14.01,2013-01-04 01:25:00,
2013-01-03 20:30:00,27.9,21.6,30.10,WSW,244,6.0,11.0,77,0.00,,OVC028,0.00,VWS V14.01,2013-01-04 01:30:00,
2013-01-03 20:40:00,27.8,21.9,30.10,WSW,251,5.0,11.0,78,0.00,,OVC028,0.00,VWS V14.01,2013-01-04 01:40:00,
2013-01-03 20:45:00,27.8,21.9,30.10,WSW,251,7.0,10.0,78,0.00,,OVC028,0.00,VWS V14.01,2013-01-04 01:45:00,
2013-01-03 20:50:00,27.6,21.6,30.10,WSW,244,3.0,9.0,78,0.00,,OVC028,0.00,VWS V14.01,2013-01-04 01:50:00,
2013-01-03 20:55:00,27.6,21.6,30.10,SSW,208,4.0,10.0,78,0.00,,OVC028,0.00,VWS V14.01,2013-01-04 01:55:00,
2013-01-03 21:05:00,27.6,21.0,30.10,WSW,243,7.0,14.0,76,0.00,,OVC024,0.00,VWS V14.01,2013-01-04 02:05:00,
2013-01-03 21:10:00,27.5,20.6,30.10,SW,226,6.0,12.0,75,0.00,,OVC024,0.00,VWS V14.01,2013-01-04 02:10:00,
2013-01-03 21:15:00,27.3,20.1,30.10,WSW,241,12.0,15.0,74,0.00,,OVC024,0.00,VWS V14.01,2013-01-04 02:15:00,
2013-01-03 21:25:00,27.0,20.1,30.10,SW,234,2.0,12.0,75,0.00,,OVC024,0.00,VWS V14.01,2013-01-04 02:25:00,
2013-01-03 21:30:00,26.7,19.9,30.10,SSW,206,11.0,12.0,75,0.00,,OVC024,0.00,VWS V14.01,2013-01-04 02:30:00,
2013-01-03 21:35:00,26.3,19.5,30.10,SSW,213,7.0,14.0,75,0.00,,OVC024,0.00,VWS V14.01,2013-01-04 02:35:00,
2013-01-03 21:45:00,25.7,18.6,30.10,WSW,246,9.0,13.0,74,0.00,,OVC024,0.00,VWS V14.01,2013-01-04 02:45:00,
2013-01-03 21:50:00,25.6,18.5,30.10,WSW,256,6.0,13.0,74,0.00,,OVC024,0.00,VWS V14.01,2013-01-04 02:50:00,
2013-01-03 22:00:00,25.3,17.9,30.10,SW,226,7.0,16.0,73,0.00,,OVC024,0.00,VWS V14.01,2013-01-04 03:00:00,
2013-01-03 22:05:00,25.1,17.7,30.10,WSW,237,6.0,10.0,73,0.00,,OVC024,0.00,VWS V14.01,2013-01-04 03:05:00,
2013-01-03 22:15:00,24.8,17.4,30.10,SW,236,8.0,12.0,73,0.00,,OVC024,0.00,VWS V14.01,2013-01-04 03:15:00,
2013-01-03 22:25:00,24.7,17.3,30.10,WSW,257,9.0,11.0,73,0.00,,OVC024,0.00,VWS V14.01,2013-01-04 03:25:00,
2013-01-03 22:30:00,24.7,17.3,30.11,WSW,246,7.0,12.0,73,0.00,,OVC024,0.00,VWS V14.01,2013-01-04 03:30:00,
2013-01-03 22:35:00,24.5,17.1,30.11,SW,224,8.0,14.0,73,0.00,,OVC024,0.00,VWS V14.01,2013-01-04 03:35:00,
2013-01-03 22:40:00,24.4,17.0,30.11,South,189,5.0,12.0,73,0.00,,OVC024,0.00,VWS V14.01,2013-01-04 03:40:00,
2013-01-03 22:45:00,24.2,16.8,30.11,SSE,154,6.0,12.0,73,0.00,,OVC024,0.00,VWS V14.01,2013-01-04 03:45:00,
2013-01-03 22:50:00,24.2,16.8,30.11,WSW,241,4.0,13.0,73,0.00,,OVC024,0.00,VWS V14.01,2013-01-04 03:50:00,
2013-01-03 22:55:00,24.2,16.8,30.11,SW,232,3.0,13.0,73,0.00,,OVC024,0.00,VWS V14.01,2013-01-04 03:55:00,
2013-01-03 23:00:00,24.2,16.8,30.11,SW,224,6.0,11.0,73,0.00,,OVC022,0.00,VWS V14.01,2013-01-04 04:00:00,
2013-01-03 23:05:00,24.2,16.8,30.11,SSW,206,6.0,11.0,73,0.00,,OVC022,0.00,VWS V14.01,2013-01-04 04:05:00,
2013-01-03 23:15:00,23.9,16.5,30.11,SW,234,6.0,12.0,73,0.00,,OVC022,0.00,VWS V14.01,2013-01-04 04:15:00,
2013-01-03 23:25:00,23.5,16.1,30.11,SSW,210,10.0,12.0,73,0.00,,OVC022,0.00,VWS V14.01,2013-01-04 04:25:00,
2013-01-03 23:30:00,23.2,16.2,30.11,SW,230,7.0,13.0,74,0.00,,OVC022,0.00,VWS V14.01,2013-01-04 04:30:00,
2013-01-03 23:40:00,22.5,15.8,30.11,SW,222,5.0,11.0,75,0.00,,OVC022,0.00,VWS V14.01,2013-01-04 04:40:00,
2013-01-03 23:45:00,22.2,15.5,30.11,SSW,210,11.0,13.0,75,0.00,,OVC022,0.00,VWS V14.01,2013-01-04 04:45:00,
2013-01-03 23:50:00,22.1,15.4,30.11,WSW,256,12.0,17.0,75,0.00,,OVC022,0.00,VWS V14.01,2013-01-04 04:50:00,